sensor_id;sensor_type;location;lat;lon;timestamp;temperature;humidity
24664;DHT22;12791;50.992;13.788;2022-08-18T00:02:07;21.70;61.20
24664;DHT22;12791;50.992;13.788;2022-08-18T00:04:35;21.60;61.30
24664;DHT22;12791;50.992;13.788;2022-08-18T00:07:04;21.60;61.50
24664;DHT22;12791;50.992;13.788;2022-08-18T00:09:33;21.60;61.80
24664;DHT22;12791;50.992;13.788;2022-08-18T00:12:03;21.50;61.80
24664;DHT22;12791;50.992;13.788;2022-08-18T00:14:30;21.60;62.10
24664;DHT22;12791;50.992;13.788;2022-08-18T00:16:57;21.50;62.00
24664;DHT22;12791;50.992;13.788;2022-08-18T00:19:24;21.50;62.10
24664;DHT22;12791;50.992;13.788;2022-08-18T00:21:51;21.40;62.30
24664;DHT22;12791;50.992;13.788;2022-08-18T00:24:19;21.40;62.40
24664;DHT22;12791;50.992;13.788;2022-08-18T00:26:45;21.40;62.60
24664;DHT22;12791;50.992;13.788;2022-08-18T00:29:13;21.40;62.70
24664;DHT22;12791;50.992;13.788;2022-08-18T00:31:39;21.40;62.60
24664;DHT22;12791;50.992;13.788;2022-08-18T00:34:06;21.40;62.70
24664;DHT22;12791;50.992;13.788;2022-08-18T00:36:33;21.30;62.70
24664;DHT22;12791;50.992;13.788;2022-08-18T00:39:00;21.30;62.90
24664;DHT22;12791;50.992;13.788;2022-08-18T00:41:28;21.30;62.90
24664;DHT22;12791;50.992;13.788;2022-08-18T00:43:55;21.30;63.70
24664;DHT22;12791;50.992;13.788;2022-08-18T00:46:27;21.20;63.30
24664;DHT22;12791;50.992;13.788;2022-08-18T00:48:54;21.10;63.70
24664;DHT22;12791;50.992;13.788;2022-08-18T00:51:23;21.00;64.20
24664;DHT22;12791;50.992;13.788;2022-08-18T00:53:56;21.00;64.60
24664;DHT22;12791;50.992;13.788;2022-08-18T00:56:29;21.00;64.90
24664;DHT22;12791;50.992;13.788;2022-08-18T00:59:04;21.00;65.10
24664;DHT22;12791;50.992;13.788;2022-08-18T01:01:32;21.00;65.10
24664;DHT22;12791;50.992;13.788;2022-08-18T01:04:03;21.10;65.00
24664;DHT22;12791;50.992;13.788;2022-08-18T01:06:34;21.10;65.00
24664;DHT22;12791;50.992;13.788;2022-08-18T01:09:03;21.10;64.80
24664;DHT22;12791;50.992;13.788;2022-08-18T01:11:31;21.10;64.90
24664;DHT22;12791;50.992;13.788;2022-08-18T01:13:58;21.00;64.60
24664;DHT22;12791;50.992;13.788;2022-08-18T01:16:25;21.00;64.50
24664;DHT22;12791;50.992;13.788;2022-08-18T01:19:09;21.10;64.60
24664;DHT22;12791;50.992;13.788;2022-08-18T01:21:58;21.00;64.60
24664;DHT22;12791;50.992;13.788;2022-08-18T01:24:30;21.00;64.70
24664;DHT22;12791;50.992;13.788;2022-08-18T01:27:17;21.00;65.10
24664;DHT22;12791;50.992;13.788;2022-08-18T01:29:44;20.90;64.90
24664;DHT22;12791;50.992;13.788;2022-08-18T01:32:14;20.90;65.20
24664;DHT22;12791;50.992;13.788;2022-08-18T01:34:44;20.90;65.50
24664;DHT22;12791;50.992;13.788;2022-08-18T01:37:12;20.80;65.50
24664;DHT22;12791;50.992;13.788;2022-08-18T01:39:41;20.80;65.80
24664;DHT22;12791;50.992;13.788;2022-08-18T01:42:08;20.80;65.90
24664;DHT22;12791;50.992;13.788;2022-08-18T01:44:34;20.70;65.90
24664;DHT22;12791;50.992;13.788;2022-08-18T01:47:01;20.70;65.80
24664;DHT22;12791;50.992;13.788;2022-08-18T01:49:28;20.70;66.10
24664;DHT22;12791;50.992;13.788;2022-08-18T01:51:55;20.70;66.10
24664;DHT22;12791;50.992;13.788;2022-08-18T01:54:21;20.60;66.00
24664;DHT22;12791;50.992;13.788;2022-08-18T01:56:49;20.60;65.90
24664;DHT22;12791;50.992;13.788;2022-08-18T01:59:17;20.60;65.90
24664;DHT22;12791;50.992;13.788;2022-08-18T02:01:45;20.50;66.00
24664;DHT22;12791;50.992;13.788;2022-08-18T02:04:14;20.60;66.20
24664;DHT22;12791;50.992;13.788;2022-08-18T02:06:41;20.50;66.20
24664;DHT22;12791;50.992;13.788;2022-08-18T02:09:08;20.50;66.40
24664;DHT22;12791;50.992;13.788;2022-08-18T02:11:35;20.50;66.70
24664;DHT22;12791;50.992;13.788;2022-08-18T02:14:03;20.50;66.80
24664;DHT22;12791;50.992;13.788;2022-08-18T02:16:29;20.50;67.00
24664;DHT22;12791;50.992;13.788;2022-08-18T02:18:58;20.50;67.20
24664;DHT22;12791;50.992;13.788;2022-08-18T02:21:25;20.50;67.20
24664;DHT22;12791;50.992;13.788;2022-08-18T02:23:51;20.60;67.40
24664;DHT22;12791;50.992;13.788;2022-08-18T02:26:18;20.60;67.30
24664;DHT22;12791;50.992;13.788;2022-08-18T02:28:45;20.60;67.30
24664;DHT22;12791;50.992;13.788;2022-08-18T02:31:15;20.60;67.30
24664;DHT22;12791;50.992;13.788;2022-08-18T02:33:42;20.60;67.20
24664;DHT22;12791;50.992;13.788;2022-08-18T02:36:09;20.60;67.30
24664;DHT22;12791;50.992;13.788;2022-08-18T02:38:37;20.50;67.80
24664;DHT22;12791;50.992;13.788;2022-08-18T02:41:06;20.50;67.90
24664;DHT22;12791;50.992;13.788;2022-08-18T02:43:33;20.50;67.90
24664;DHT22;12791;50.992;13.788;2022-08-18T02:46:00;20.50;67.90
24664;DHT22;12791;50.992;13.788;2022-08-18T02:48:28;20.50;67.90
24664;DHT22;12791;50.992;13.788;2022-08-18T02:51:00;20.50;67.90
24664;DHT22;12791;50.992;13.788;2022-08-18T02:53:27;20.50;67.90
24664;DHT22;12791;50.992;13.788;2022-08-18T02:55:54;20.50;67.90
24664;DHT22;12791;50.992;13.788;2022-08-18T02:58:21;20.50;67.90
24664;DHT22;12791;50.992;13.788;2022-08-18T03:00:47;20.50;67.90
24664;DHT22;12791;50.992;13.788;2022-08-18T03:03:14;20.50;67.90
24664;DHT22;12791;50.992;13.788;2022-08-18T03:05:42;20.40;67.80
24664;DHT22;12791;50.992;13.788;2022-08-18T03:08:08;20.50;67.90
24664;DHT22;12791;50.992;13.788;2022-08-18T03:10:35;20.40;68.50
24664;DHT22;12791;50.992;13.788;2022-08-18T03:13:03;20.40;67.80
24664;DHT22;12791;50.992;13.788;2022-08-18T03:15:30;20.30;67.70
24664;DHT22;12791;50.992;13.788;2022-08-18T03:17:57;20.30;67.70
24664;DHT22;12791;50.992;13.788;2022-08-18T03:20:24;20.30;67.70
24664;DHT22;12791;50.992;13.788;2022-08-18T03:22:52;20.30;67.70
24664;DHT22;12791;50.992;13.788;2022-08-18T03:25:19;20.20;67.60
24664;DHT22;12791;50.992;13.788;2022-08-18T03:27:45;20.20;67.70
24664;DHT22;12791;50.992;13.788;2022-08-18T03:30:12;20.20;68.00
24664;DHT22;12791;50.992;13.788;2022-08-18T03:32:38;20.20;68.20
24664;DHT22;12791;50.992;13.788;2022-08-18T03:35:06;20.20;68.20
24664;DHT22;12791;50.992;13.788;2022-08-18T03:37:33;20.20;68.20
24664;DHT22;12791;50.992;13.788;2022-08-18T03:40:01;20.20;68.30
24664;DHT22;12791;50.992;13.788;2022-08-18T03:42:28;20.20;68.10
24664;DHT22;12791;50.992;13.788;2022-08-18T03:44:55;20.20;68.30
24664;DHT22;12791;50.992;13.788;2022-08-18T03:47:21;20.10;68.60
24664;DHT22;12791;50.992;13.788;2022-08-18T03:49:48;20.10;69.00
24664;DHT22;12791;50.992;13.788;2022-08-18T03:52:15;20.10;69.20
24664;DHT22;12791;50.992;13.788;2022-08-18T03:54:41;20.10;69.40
24664;DHT22;12791;50.992;13.788;2022-08-18T03:57:10;20.10;69.50
24664;DHT22;12791;50.992;13.788;2022-08-18T03:59:38;20.20;69.60
24664;DHT22;12791;50.992;13.788;2022-08-18T04:02:08;20.10;69.40
24664;DHT22;12791;50.992;13.788;2022-08-18T04:04:35;20.10;69.80
24664;DHT22;12791;50.992;13.788;2022-08-18T04:07:05;20.20;70.20
24664;DHT22;12791;50.992;13.788;2022-08-18T04:09:33;20.10;70.30
24664;DHT22;12791;50.992;13.788;2022-08-18T04:12:05;20.10;70.30
24664;DHT22;12791;50.992;13.788;2022-08-18T04:14:36;20.10;70.20
24664;DHT22;12791;50.992;13.788;2022-08-18T04:17:03;20.10;70.20
24664;DHT22;12791;50.992;13.788;2022-08-18T04:19:30;20.10;70.20
24664;DHT22;12791;50.992;13.788;2022-08-18T04:22:00;20.10;69.90
24664;DHT22;12791;50.992;13.788;2022-08-18T04:24:29;20.00;69.60
24664;DHT22;12791;50.992;13.788;2022-08-18T04:26:57;20.00;69.50
24664;DHT22;12791;50.992;13.788;2022-08-18T04:29:24;19.90;69.50
24664;DHT22;12791;50.992;13.788;2022-08-18T04:31:53;19.90;69.70
24664;DHT22;12791;50.992;13.788;2022-08-18T04:34:21;19.90;70.00
24664;DHT22;12791;50.992;13.788;2022-08-18T04:36:48;19.80;70.00
24664;DHT22;12791;50.992;13.788;2022-08-18T04:39:18;19.80;70.10
24664;DHT22;12791;50.992;13.788;2022-08-18T04:41:45;19.80;70.10
24664;DHT22;12791;50.992;13.788;2022-08-18T04:44:12;19.80;70.00
24664;DHT22;12791;50.992;13.788;2022-08-18T04:46:44;19.90;70.10
24664;DHT22;12791;50.992;13.788;2022-08-18T04:49:15;19.90;70.00
24664;DHT22;12791;50.992;13.788;2022-08-18T04:51:43;19.90;70.00
24664;DHT22;12791;50.992;13.788;2022-08-18T04:54:30;19.90;70.00
24664;DHT22;12791;50.992;13.788;2022-08-18T04:56:56;19.90;70.00
24664;DHT22;12791;50.992;13.788;2022-08-18T04:59:23;20.00;70.10
24664;DHT22;12791;50.992;13.788;2022-08-18T05:01:50;20.00;70.40
24664;DHT22;12791;50.992;13.788;2022-08-18T05:04:18;20.00;70.60
24664;DHT22;12791;50.992;13.788;2022-08-18T05:06:45;20.10;70.70
24664;DHT22;12791;50.992;13.788;2022-08-18T05:09:13;20.10;70.80
24664;DHT22;12791;50.992;13.788;2022-08-18T05:11:40;20.10;71.10
24664;DHT22;12791;50.992;13.788;2022-08-18T05:14:09;20.10;71.30
24664;DHT22;12791;50.992;13.788;2022-08-18T05:16:36;20.20;71.50
24664;DHT22;12791;50.992;13.788;2022-08-18T05:19:05;20.20;71.50
24664;DHT22;12791;50.992;13.788;2022-08-18T05:21:35;20.30;71.60
24664;DHT22;12791;50.992;13.788;2022-08-18T05:24:03;20.40;71.70
24664;DHT22;12791;50.992;13.788;2022-08-18T05:26:30;20.40;71.70
24664;DHT22;12791;50.992;13.788;2022-08-18T05:28:57;20.50;72.00
24664;DHT22;12791;50.992;13.788;2022-08-18T05:31:26;20.60;73.30
24664;DHT22;12791;50.992;13.788;2022-08-18T05:33:54;20.60;72.90
24664;DHT22;12791;50.992;13.788;2022-08-18T05:36:30;20.70;72.90
24664;DHT22;12791;50.992;13.788;2022-08-18T05:39:06;20.70;73.50
24664;DHT22;12791;50.992;13.788;2022-08-18T05:41:39;20.80;74.10
24664;DHT22;12791;50.992;13.788;2022-08-18T05:44:07;20.80;73.90
24664;DHT22;12791;50.992;13.788;2022-08-18T05:46:41;20.80;74.10
24664;DHT22;12791;50.992;13.788;2022-08-18T05:49:09;20.90;73.50
24664;DHT22;12791;50.992;13.788;2022-08-18T05:51:40;21.00;72.90
24664;DHT22;12791;50.992;13.788;2022-08-18T05:54:09;21.10;72.90
24664;DHT22;12791;50.992;13.788;2022-08-18T05:56:56;21.20;71.80
24664;DHT22;12791;50.992;13.788;2022-08-18T05:59:25;21.30;70.80
24664;DHT22;12791;50.992;13.788;2022-08-18T06:01:57;21.30;69.50
24664;DHT22;12791;50.992;13.788;2022-08-18T06:04:42;21.40;68.80
24664;DHT22;12791;50.992;13.788;2022-08-18T06:07:13;21.50;68.90
24664;DHT22;12791;50.992;13.788;2022-08-18T06:09:47;21.50;68.80
24664;DHT22;12791;50.992;13.788;2022-08-18T06:12:26;21.60;68.90
24664;DHT22;12791;50.992;13.788;2022-08-18T06:15:01;21.70;69.00
24664;DHT22;12791;50.992;13.788;2022-08-18T06:20:23;21.90;67.40
24664;DHT22;12791;50.992;13.788;2022-08-18T06:23:00;21.90;67.10
24664;DHT22;12791;50.992;13.788;2022-08-18T06:25:40;22.00;66.60
24664;DHT22;12791;50.992;13.788;2022-08-18T06:28:12;22.10;66.50
24664;DHT22;12791;50.992;13.788;2022-08-18T06:30:49;22.20;66.10
24664;DHT22;12791;50.992;13.788;2022-08-18T06:33:34;22.20;65.10
24664;DHT22;12791;50.992;13.788;2022-08-18T06:36:09;22.30;65.50
24664;DHT22;12791;50.992;13.788;2022-08-18T06:38:49;22.40;65.50
24664;DHT22;12791;50.992;13.788;2022-08-18T06:41:21;22.40;65.20
24664;DHT22;12791;50.992;13.788;2022-08-18T06:43:58;22.50;65.10
24664;DHT22;12791;50.992;13.788;2022-08-18T06:46:31;22.60;65.00
24664;DHT22;12791;50.992;13.788;2022-08-18T06:49:03;22.70;65.10
24664;DHT22;12791;50.992;13.788;2022-08-18T06:51:31;22.70;65.00
24664;DHT22;12791;50.992;13.788;2022-08-18T06:54:01;22.80;64.70
24664;DHT22;12791;50.992;13.788;2022-08-18T06:56:45;22.90;64.40
24664;DHT22;12791;50.992;13.788;2022-08-18T06:59:21;22.90;64.20
24664;DHT22;12791;50.992;13.788;2022-08-18T07:01:52;23.00;63.90
24664;DHT22;12791;50.992;13.788;2022-08-18T07:04:36;23.00;63.70
24664;DHT22;12791;50.992;13.788;2022-08-18T07:07:31;23.10;63.80
24664;DHT22;12791;50.992;13.788;2022-08-18T07:09:58;23.20;64.10
24664;DHT22;12791;50.992;13.788;2022-08-18T07:12:27;23.20;64.10
24664;DHT22;12791;50.992;13.788;2022-08-18T07:14:57;23.30;64.30
24664;DHT22;12791;50.992;13.788;2022-08-18T07:17:26;23.40;64.00
24664;DHT22;12791;50.992;13.788;2022-08-18T07:19:55;23.30;63.80
24664;DHT22;12791;50.992;13.788;2022-08-18T07:22:23;23.40;63.90
24664;DHT22;12791;50.992;13.788;2022-08-18T07:24:52;23.50;64.00
24664;DHT22;12791;50.992;13.788;2022-08-18T07:27:21;23.50;63.90
24664;DHT22;12791;50.992;13.788;2022-08-18T07:30:03;23.50;63.90
24664;DHT22;12791;50.992;13.788;2022-08-18T07:32:34;23.60;64.00
24664;DHT22;12791;50.992;13.788;2022-08-18T07:35:04;23.60;64.00
24664;DHT22;12791;50.992;13.788;2022-08-18T07:37:34;23.70;64.20
24664;DHT22;12791;50.992;13.788;2022-08-18T07:40:13;23.80;64.40
24664;DHT22;12791;50.992;13.788;2022-08-18T07:42:50;23.80;64.30
24664;DHT22;12791;50.992;13.788;2022-08-18T07:45:23;23.90;64.30
24664;DHT22;12791;50.992;13.788;2022-08-18T07:47:57;23.90;63.90
24664;DHT22;12791;50.992;13.788;2022-08-18T07:50:26;24.00;63.40
24664;DHT22;12791;50.992;13.788;2022-08-18T07:53:04;24.00;63.10
24664;DHT22;12791;50.992;13.788;2022-08-18T07:55:34;24.20;63.20
24664;DHT22;12791;50.992;13.788;2022-08-18T07:58:14;24.20;63.20
24664;DHT22;12791;50.992;13.788;2022-08-18T08:00:49;24.20;63.20
24664;DHT22;12791;50.992;13.788;2022-08-18T08:03:28;24.30;63.10
24664;DHT22;12791;50.992;13.788;2022-08-18T08:06:03;24.40;63.00
24664;DHT22;12791;50.992;13.788;2022-08-18T08:08:36;24.40;62.80
24664;DHT22;12791;50.992;13.788;2022-08-18T08:11:15;24.40;62.70
24664;DHT22;12791;50.992;13.788;2022-08-18T08:14:02;24.50;62.80
24664;DHT22;12791;50.992;13.788;2022-08-18T08:16:44;24.50;62.60
24664;DHT22;12791;50.992;13.788;2022-08-18T08:19:33;24.50;62.40
24664;DHT22;12791;50.992;13.788;2022-08-18T08:22:06;24.60;62.70
24664;DHT22;12791;50.992;13.788;2022-08-18T08:24:43;24.70;62.40
24664;DHT22;12791;50.992;13.788;2022-08-18T08:27:17;24.80;61.40
24664;DHT22;12791;50.992;13.788;2022-08-18T08:29:52;24.80;61.00
24664;DHT22;12791;50.992;13.788;2022-08-18T08:32:29;24.90;60.90
24664;DHT22;12791;50.992;13.788;2022-08-18T08:35:03;25.00;60.70
24664;DHT22;12791;50.992;13.788;2022-08-18T08:37:36;25.10;60.80
24664;DHT22;12791;50.992;13.788;2022-08-18T08:40:08;25.30;60.30
24664;DHT22;12791;50.992;13.788;2022-08-18T08:42:43;25.40;60.30
24664;DHT22;12791;50.992;13.788;2022-08-18T08:45:15;25.60;59.60
24664;DHT22;12791;50.992;13.788;2022-08-18T08:47:50;25.70;59.40
24664;DHT22;12791;50.992;13.788;2022-08-18T08:50:24;25.70;59.20
24664;DHT22;12791;50.992;13.788;2022-08-18T08:52:55;25.80;59.40
24664;DHT22;12791;50.992;13.788;2022-08-18T08:55:25;26.00;58.50
24664;DHT22;12791;50.992;13.788;2022-08-18T08:57:57;26.10;58.60
24664;DHT22;12791;50.992;13.788;2022-08-18T09:00:28;26.30;57.20
24664;DHT22;12791;50.992;13.788;2022-08-18T09:03:16;26.40;56.70
24664;DHT22;12791;50.992;13.788;2022-08-18T09:05:50;26.50;55.20
24664;DHT22;12791;50.992;13.788;2022-08-18T09:08:44;26.50;55.00
24664;DHT22;12791;50.992;13.788;2022-08-18T09:11:24;26.50;55.30
24664;DHT22;12791;50.992;13.788;2022-08-18T09:17:15;26.60;55.10
24664;DHT22;12791;50.992;13.788;2022-08-18T09:20:03;26.60;54.70
24664;DHT22;12791;50.992;13.788;2022-08-18T09:22:40;26.80;53.90
24664;DHT22;12791;50.992;13.788;2022-08-18T09:25:33;26.90;53.70
24664;DHT22;12791;50.992;13.788;2022-08-18T09:28:12;27.00;53.40
24664;DHT22;12791;50.992;13.788;2022-08-18T09:30:44;27.00;53.60
24664;DHT22;12791;50.992;13.788;2022-08-18T09:33:29;27.00;53.20
24664;DHT22;12791;50.992;13.788;2022-08-18T09:36:20;27.10;53.10
24664;DHT22;12791;50.992;13.788;2022-08-18T09:38:50;27.10;52.60
24664;DHT22;12791;50.992;13.788;2022-08-18T09:41:39;27.20;52.30
24664;DHT22;12791;50.992;13.788;2022-08-18T09:44:13;27.30;51.50
24664;DHT22;12791;50.992;13.788;2022-08-18T09:46:51;27.30;51.70
24664;DHT22;12791;50.992;13.788;2022-08-18T09:49:46;27.30;51.80
24664;DHT22;12791;50.992;13.788;2022-08-18T09:55:52;27.30;52.90
24664;DHT22;12791;50.992;13.788;2022-08-18T09:58:47;27.30;52.90
24664;DHT22;12791;50.992;13.788;2022-08-18T10:01:19;27.30;53.00
24664;DHT22;12791;50.992;13.788;2022-08-18T10:04:17;27.30;53.10
24664;DHT22;12791;50.992;13.788;2022-08-18T10:06:46;27.30;53.20
24664;DHT22;12791;50.992;13.788;2022-08-18T10:12:23;27.50;52.20
24664;DHT22;12791;50.992;13.788;2022-08-18T10:15:24;27.50;52.30
24664;DHT22;12791;50.992;13.788;2022-08-18T10:18:01;27.60;51.80
24664;DHT22;12791;50.992;13.788;2022-08-18T10:20:40;27.60;52.10
24664;DHT22;12791;50.992;13.788;2022-08-18T10:23:09;27.60;52.50
24664;DHT22;12791;50.992;13.788;2022-08-18T10:25:38;27.50;52.00
24664;DHT22;12791;50.992;13.788;2022-08-18T10:28:08;27.60;51.70
24664;DHT22;12791;50.992;13.788;2022-08-18T10:31:02;27.50;51.60
24664;DHT22;12791;50.992;13.788;2022-08-18T10:33:58;27.50;52.10
24664;DHT22;12791;50.992;13.788;2022-08-18T10:36:37;27.50;51.60
24664;DHT22;12791;50.992;13.788;2022-08-18T10:39:04;27.50;51.60
24664;DHT22;12791;50.992;13.788;2022-08-18T10:41:32;27.40;51.60
24664;DHT22;12791;50.992;13.788;2022-08-18T10:44:04;27.40;51.60
24664;DHT22;12791;50.992;13.788;2022-08-18T10:46:33;27.20;51.40
24664;DHT22;12791;50.992;13.788;2022-08-18T10:49:15;27.30;51.50
24664;DHT22;12791;50.992;13.788;2022-08-18T10:52:05;27.30;51.20
24664;DHT22;12791;50.992;13.788;2022-08-18T10:54:48;27.20;51.40
24664;DHT22;12791;50.992;13.788;2022-08-18T10:57:25;27.20;51.40
24664;DHT22;12791;50.992;13.788;2022-08-18T10:59:58;27.20;51.30
24664;DHT22;12791;50.992;13.788;2022-08-18T11:02:42;27.20;51.30
24664;DHT22;12791;50.992;13.788;2022-08-18T11:05:13;27.30;51.00
24664;DHT22;12791;50.992;13.788;2022-08-18T11:07:45;27.30;51.00
24664;DHT22;12791;50.992;13.788;2022-08-18T11:10:16;27.40;50.60
24664;DHT22;12791;50.992;13.788;2022-08-18T11:12:57;27.50;51.00
24664;DHT22;12791;50.992;13.788;2022-08-18T11:15:35;27.50;50.20
24664;DHT22;12791;50.992;13.788;2022-08-18T11:18:15;27.60;50.40
24664;DHT22;12791;50.992;13.788;2022-08-18T11:20:44;27.60;50.70
24664;DHT22;12791;50.992;13.788;2022-08-18T11:23:13;27.60;50.70
24664;DHT22;12791;50.992;13.788;2022-08-18T11:25:40;27.60;50.40
24664;DHT22;12791;50.992;13.788;2022-08-18T11:28:14;27.60;50.40
24664;DHT22;12791;50.992;13.788;2022-08-18T11:30:45;27.50;50.40
24664;DHT22;12791;50.992;13.788;2022-08-18T11:33:14;27.50;50.60
24664;DHT22;12791;50.992;13.788;2022-08-18T11:35:46;27.40;50.70
24664;DHT22;12791;50.992;13.788;2022-08-18T11:38:15;27.40;51.00
24664;DHT22;12791;50.992;13.788;2022-08-18T11:40:44;27.40;51.10
24664;DHT22;12791;50.992;13.788;2022-08-18T11:43:15;27.30;51.30
24664;DHT22;12791;50.992;13.788;2022-08-18T11:45:54;27.30;51.50
24664;DHT22;12791;50.992;13.788;2022-08-18T11:48:32;27.20;51.40
24664;DHT22;12791;50.992;13.788;2022-08-18T11:51:08;27.10;52.00
24664;DHT22;12791;50.992;13.788;2022-08-18T11:53:39;27.10;52.50
24664;DHT22;12791;50.992;13.788;2022-08-18T11:56:15;27.00;52.80
24664;DHT22;12791;50.992;13.788;2022-08-18T11:58:43;26.90;53.10
24664;DHT22;12791;50.992;13.788;2022-08-18T12:01:28;26.90;53.30
24664;DHT22;12791;50.992;13.788;2022-08-18T12:03:57;26.80;54.10
24664;DHT22;12791;50.992;13.788;2022-08-18T12:06:27;26.80;53.30
24664;DHT22;12791;50.992;13.788;2022-08-18T12:08:58;26.70;53.30
24664;DHT22;12791;50.992;13.788;2022-08-18T12:11:28;26.70;53.40
24664;DHT22;12791;50.992;13.788;2022-08-18T12:14:02;26.70;53.40
24664;DHT22;12791;50.992;13.788;2022-08-18T12:16:31;26.70;53.40
24664;DHT22;12791;50.992;13.788;2022-08-18T12:18:58;26.70;53.50
24664;DHT22;12791;50.992;13.788;2022-08-18T12:21:25;26.70;53.70
24664;DHT22;12791;50.992;13.788;2022-08-18T12:23:52;26.70;53.80
24664;DHT22;12791;50.992;13.788;2022-08-18T12:26:19;26.70;54.10
24664;DHT22;12791;50.992;13.788;2022-08-18T12:28:46;26.70;54.10
24664;DHT22;12791;50.992;13.788;2022-08-18T12:31:12;26.70;54.00
24664;DHT22;12791;50.992;13.788;2022-08-18T12:33:40;26.60;54.00
24664;DHT22;12791;50.992;13.788;2022-08-18T12:36:08;26.60;54.20
24664;DHT22;12791;50.992;13.788;2022-08-18T12:38:34;26.60;54.20
24664;DHT22;12791;50.992;13.788;2022-08-18T12:41:01;26.60;54.20
24664;DHT22;12791;50.992;13.788;2022-08-18T12:43:29;26.60;54.20
24664;DHT22;12791;50.992;13.788;2022-08-18T12:45:57;26.60;54.20
24664;DHT22;12791;50.992;13.788;2022-08-18T12:48:24;26.60;54.50
24664;DHT22;12791;50.992;13.788;2022-08-18T12:50:53;26.60;54.80
24664;DHT22;12791;50.992;13.788;2022-08-18T12:53:20;26.60;55.00
24664;DHT22;12791;50.992;13.788;2022-08-18T12:55:47;26.60;55.10
24664;DHT22;12791;50.992;13.788;2022-08-18T12:58:14;26.50;55.10
24664;DHT22;12791;50.992;13.788;2022-08-18T13:00:40;26.50;55.30
24664;DHT22;12791;50.992;13.788;2022-08-18T13:03:07;26.50;55.30
24664;DHT22;12791;50.992;13.788;2022-08-18T13:05:34;26.50;55.30
24664;DHT22;12791;50.992;13.788;2022-08-18T13:08:04;26.50;55.40
24664;DHT22;12791;50.992;13.788;2022-08-18T13:10:31;26.50;55.30
24664;DHT22;12791;50.992;13.788;2022-08-18T13:12:58;26.50;55.40
24664;DHT22;12791;50.992;13.788;2022-08-18T13:15:24;26.50;55.40
24664;DHT22;12791;50.992;13.788;2022-08-18T13:17:51;26.50;55.40
24664;DHT22;12791;50.992;13.788;2022-08-18T13:20:19;26.50;55.40
24664;DHT22;12791;50.992;13.788;2022-08-18T13:22:46;26.50;55.60
24664;DHT22;12791;50.992;13.788;2022-08-18T13:25:15;26.50;55.70
24664;DHT22;12791;50.992;13.788;2022-08-18T13:27:42;26.50;55.70
24664;DHT22;12791;50.992;13.788;2022-08-18T13:30:13;26.60;55.80
24664;DHT22;12791;50.992;13.788;2022-08-18T13:32:41;26.60;55.60
24664;DHT22;12791;50.992;13.788;2022-08-18T13:35:09;26.70;55.70
24664;DHT22;12791;50.992;13.788;2022-08-18T13:37:36;26.70;55.50
24664;DHT22;12791;50.992;13.788;2022-08-18T13:40:03;26.70;55.50
24664;DHT22;12791;50.992;13.788;2022-08-18T13:42:40;26.80;55.70
24664;DHT22;12791;50.992;13.788;2022-08-18T13:45:08;26.90;55.60
24664;DHT22;12791;50.992;13.788;2022-08-18T13:47:38;27.00;55.50
24664;DHT22;12791;50.992;13.788;2022-08-18T13:50:05;27.10;54.90
24664;DHT22;12791;50.992;13.788;2022-08-18T13:52:32;27.20;54.50
24664;DHT22;12791;50.992;13.788;2022-08-18T13:54:58;27.30;54.30
24664;DHT22;12791;50.992;13.788;2022-08-18T13:57:25;27.40;54.40
24664;DHT22;12791;50.992;13.788;2022-08-18T13:59:53;27.60;54.20
24664;DHT22;12791;50.992;13.788;2022-08-18T14:02:19;27.70;54.10
24664;DHT22;12791;50.992;13.788;2022-08-18T14:04:46;27.70;53.20
24664;DHT22;12791;50.992;13.788;2022-08-18T14:07:13;27.80;53.20
24664;DHT22;12791;50.992;13.788;2022-08-18T14:09:42;27.90;52.80
24664;DHT22;12791;50.992;13.788;2022-08-18T14:12:15;28.00;52.90
24664;DHT22;12791;50.992;13.788;2022-08-18T14:14:43;28.00;53.00
24664;DHT22;12791;50.992;13.788;2022-08-18T14:17:11;28.00;53.10
24664;DHT22;12791;50.992;13.788;2022-08-18T14:19:38;27.90;53.10
24664;DHT22;12791;50.992;13.788;2022-08-18T14:22:22;27.90;53.60
24664;DHT22;12791;50.992;13.788;2022-08-18T14:25:07;27.80;53.80
24664;DHT22;12791;50.992;13.788;2022-08-18T14:27:51;27.90;54.30
24664;DHT22;12791;50.992;13.788;2022-08-18T14:30:18;27.90;54.30
24664;DHT22;12791;50.992;13.788;2022-08-18T14:32:46;27.90;54.30
24664;DHT22;12791;50.992;13.788;2022-08-18T14:35:14;27.90;54.30
24664;DHT22;12791;50.992;13.788;2022-08-18T14:37:41;27.90;54.30
24664;DHT22;12791;50.992;13.788;2022-08-18T14:40:08;27.90;54.20
24664;DHT22;12791;50.992;13.788;2022-08-18T14:42:35;27.90;54.40
24664;DHT22;12791;50.992;13.788;2022-08-18T14:45:03;27.90;54.50
24664;DHT22;12791;50.992;13.788;2022-08-18T14:47:30;27.90;54.70
24664;DHT22;12791;50.992;13.788;2022-08-18T14:49:58;27.90;54.70
24664;DHT22;12791;50.992;13.788;2022-08-18T14:52:26;27.90;54.60
24664;DHT22;12791;50.992;13.788;2022-08-18T14:54:53;27.90;54.30
24664;DHT22;12791;50.992;13.788;2022-08-18T14:57:20;27.90;54.40
24664;DHT22;12791;50.992;13.788;2022-08-18T14:59:47;27.90;54.60
24664;DHT22;12791;50.992;13.788;2022-08-18T15:02:13;27.90;54.80
24664;DHT22;12791;50.992;13.788;2022-08-18T15:04:40;28.00;54.80
24664;DHT22;12791;50.992;13.788;2022-08-18T15:07:08;28.00;54.80
24664;DHT22;12791;50.992;13.788;2022-08-18T15:09:35;28.00;54.80
24664;DHT22;12791;50.992;13.788;2022-08-18T15:12:02;28.00;55.00
24664;DHT22;12791;50.992;13.788;2022-08-18T15:14:30;28.00;55.20
24664;DHT22;12791;50.992;13.788;2022-08-18T15:16:58;28.00;55.20
24664;DHT22;12791;50.992;13.788;2022-08-18T15:19:25;28.00;55.10
24664;DHT22;12791;50.992;13.788;2022-08-18T15:21:51;27.90;55.20
24664;DHT22;12791;50.992;13.788;2022-08-18T15:24:39;27.90;55.30
24664;DHT22;12791;50.992;13.788;2022-08-18T15:27:30;27.80;55.40
24664;DHT22;12791;50.992;13.788;2022-08-18T15:29:57;27.80;55.50
24664;DHT22;12791;50.992;13.788;2022-08-18T15:32:23;27.90;55.60
24664;DHT22;12791;50.992;13.788;2022-08-18T15:34:50;27.90;55.50
24664;DHT22;12791;50.992;13.788;2022-08-18T15:37:18;27.90;55.50
24664;DHT22;12791;50.992;13.788;2022-08-18T15:39:46;27.80;55.50
24664;DHT22;12791;50.992;13.788;2022-08-18T15:42:13;27.80;55.50
24664;DHT22;12791;50.992;13.788;2022-08-18T15:44:39;27.80;55.60
24664;DHT22;12791;50.992;13.788;2022-08-18T15:47:06;27.80;55.70
24664;DHT22;12791;50.992;13.788;2022-08-18T15:49:33;27.80;55.70
24664;DHT22;12791;50.992;13.788;2022-08-18T15:52:00;27.70;55.60
24664;DHT22;12791;50.992;13.788;2022-08-18T15:54:26;27.60;55.80